sensor_id;sensor_type;location;lat;lon;timestamp;P1;durP1;ratioP1;P2;durP2;ratioP2
23474;SDS011;11910;52.086;21.066;2024-02-16T00:00:26;23.17;;;14.57;;
23474;SDS011;11910;52.086;21.066;2024-02-16T00:02:52;22.83;;;15.00;;
23474;SDS011;11910;52.086;21.066;2024-02-16T00:05:18;22.20;;;14.63;;
23474;SDS011;11910;52.086;21.066;2024-02-16T00:07:44;20.73;;;14.13;;
23474;SDS011;11910;52.086;21.066;2024-02-16T00:10:10;21.10;;;14.32;;
23474;SDS011;11910;52.086;21.066;2024-02-16T00:12:37;23.40;;;14.98;;
23474;SDS011;11910;52.086;21.066;2024-02-16T00:15:05;20.80;;;13.80;;
23474;SDS011;11910;52.086;21.066;2024-02-16T00:17:31;20.90;;;13.77;;
23474;SDS011;11910;52.086;21.066;2024-02-16T00:19:56;20.05;;;13.65;;
23474;SDS011;11910;52.086;21.066;2024-02-16T00:22:22;21.75;;;13.82;;
23474;SDS011;11910;52.086;21.066;2024-02-16T00:24:48;19.40;;;13.32;;
23474;SDS011;11910;52.086;21.066;2024-02-16T00:27:14;22.45;;;14.23;;
23474;SDS011;11910;52.086;21.066;2024-02-16T00:29:40;20.85;;;13.48;;
23474;SDS011;11910;52.086;21.066;2024-02-16T00:32:06;20.90;;;14.05;;
23474;SDS011;11910;52.086;21.066;2024-02-16T00:34:33;20.13;;;13.52;;
23474;SDS011;11910;52.086;21.066;2024-02-16T00:36:59;24.92;;;13.98;;
23474;SDS011;11910;52.086;21.066;2024-02-16T00:39:25;21.60;;;13.75;;
23474;SDS011;11910;52.086;21.066;2024-02-16T00:41:51;21.02;;;13.73;;
23474;SDS011;11910;52.086;21.066;2024-02-16T00:44:16;20.10;;;13.30;;
23474;SDS011;11910;52.086;21.066;2024-02-16T00:46:43;20.15;;;13.27;;
23474;SDS011;11910;52.086;21.066;2024-02-16T00:49:09;20.10;;;13.30;;
23474;SDS011;11910;52.086;21.066;2024-02-16T00:51:35;19.77;;;13.00;;
23474;SDS011;11910;52.086;21.066;2024-02-16T00:54:02;21.20;;;13.93;;
23474;SDS011;11910;52.086;21.066;2024-02-16T00:56:28;19.98;;;12.68;;
23474;SDS011;11910;52.086;21.066;2024-02-16T00:58:54;19.83;;;13.05;;
23474;SDS011;11910;52.086;21.066;2024-02-16T01:01:20;19.92;;;12.07;;
23474;SDS011;11910;52.086;21.066;2024-02-16T01:03:47;20.55;;;13.20;;
23474;SDS011;11910;52.086;21.066;2024-02-16T01:06:13;21.30;;;13.18;;
23474;SDS011;11910;52.086;21.066;2024-02-16T01:08:40;22.20;;;12.63;;
23474;SDS011;11910;52.086;21.066;2024-02-16T01:11:06;19.40;;;12.98;;
23474;SDS011;11910;52.086;21.066;2024-02-16T01:13:32;17.85;;;12.20;;
23474;SDS011;11910;52.086;21.066;2024-02-16T01:15:58;19.58;;;12.95;;
23474;SDS011;11910;52.086;21.066;2024-02-16T01:18:25;18.25;;;11.98;;
23474;SDS011;11910;52.086;21.066;2024-02-16T01:20:52;18.10;;;11.95;;
23474;SDS011;11910;52.086;21.066;2024-02-16T01:23:19;17.05;;;11.77;;
23474;SDS011;11910;52.086;21.066;2024-02-16T01:25:45;19.35;;;11.80;;
23474;SDS011;11910;52.086;21.066;2024-02-16T01:28:11;18.75;;;11.98;;
23474;SDS011;11910;52.086;21.066;2024-02-16T01:30:38;19.35;;;11.70;;
23474;SDS011;11910;52.086;21.066;2024-02-16T01:33:04;19.40;;;11.15;;
23474;SDS011;11910;52.086;21.066;2024-02-16T01:35:31;18.90;;;11.63;;
23474;SDS011;11910;52.086;21.066;2024-02-16T01:37:57;17.20;;;11.30;;
23474;SDS011;11910;52.086;21.066;2024-02-16T01:40:22;16.70;;;11.13;;
23474;SDS011;11910;52.086;21.066;2024-02-16T01:42:51;17.27;;;11.07;;
23474;SDS011;11910;52.086;21.066;2024-02-16T01:45:18;17.00;;;10.23;;
23474;SDS011;11910;52.086;21.066;2024-02-16T01:47:44;16.67;;;10.55;;
23474;SDS011;11910;52.086;21.066;2024-02-16T01:50:11;18.08;;;10.23;;
23474;SDS011;11910;52.086;21.066;2024-02-16T01:52:39;17.63;;;10.38;;
23474;SDS011;11910;52.086;21.066;2024-02-16T01:55:05;16.08;;;9.70;;
23474;SDS011;11910;52.086;21.066;2024-02-16T01:57:34;16.38;;;10.55;;
23474;SDS011;11910;52.086;21.066;2024-02-16T02:00:00;18.00;;;10.23;;
23474;SDS011;11910;52.086;21.066;2024-02-16T02:02:26;17.25;;;10.32;;
23474;SDS011;11910;52.086;21.066;2024-02-16T02:04:52;16.38;;;9.57;;
23474;SDS011;11910;52.086;21.066;2024-02-16T02:07:18;16.00;;;10.18;;
23474;SDS011;11910;52.086;21.066;2024-02-16T02:09:43;14.70;;;10.00;;
23474;SDS011;11910;52.086;21.066;2024-02-16T02:12:09;15.55;;;10.05;;
23474;SDS011;11910;52.086;21.066;2024-02-16T02:14:35;15.45;;;9.88;;
23474;SDS011;11910;52.086;21.066;2024-02-16T02:17:04;14.40;;;9.88;;
23474;SDS011;11910;52.086;21.066;2024-02-16T02:19:30;17.10;;;10.23;;
23474;SDS011;11910;52.086;21.066;2024-02-16T02:21:56;14.65;;;9.63;;
23474;SDS011;11910;52.086;21.066;2024-02-16T02:24:22;15.73;;;10.18;;
23474;SDS011;11910;52.086;21.066;2024-02-16T02:26:47;16.63;;;10.35;;
23474;SDS011;11910;52.086;21.066;2024-02-16T02:29:13;17.85;;;10.45;;
23474;SDS011;11910;52.086;21.066;2024-02-16T02:31:38;17.02;;;10.43;;
23474;SDS011;11910;52.086;21.066;2024-02-16T02:34:05;17.75;;;10.20;;
23474;SDS011;11910;52.086;21.066;2024-02-16T02:36:31;15.38;;;10.02;;
23474;SDS011;11910;52.086;21.066;2024-02-16T02:38:57;15.50;;;9.57;;
23474;SDS011;11910;52.086;21.066;2024-02-16T02:41:23;14.93;;;9.73;;
23474;SDS011;11910;52.086;21.066;2024-02-16T02:43:50;14.73;;;9.73;;
23474;SDS011;11910;52.086;21.066;2024-02-16T02:46:17;14.80;;;10.18;;
23474;SDS011;11910;52.086;21.066;2024-02-16T02:48:46;15.27;;;10.43;;
23474;SDS011;11910;52.086;21.066;2024-02-16T02:51:11;14.35;;;9.90;;
23474;SDS011;11910;52.086;21.066;2024-02-16T02:53:37;15.68;;;10.23;;
23474;SDS011;11910;52.086;21.066;2024-02-16T02:56:03;15.88;;;9.60;;
23474;SDS011;11910;52.086;21.066;2024-02-16T02:58:29;13.70;;;9.77;;
23474;SDS011;11910;52.086;21.066;2024-02-16T03:00:55;14.55;;;10.05;;
23474;SDS011;11910;52.086;21.066;2024-02-16T03:03:21;15.48;;;9.98;;
23474;SDS011;11910;52.086;21.066;2024-02-16T03:05:47;14.40;;;9.57;;
23474;SDS011;11910;52.086;21.066;2024-02-16T03:08:13;15.32;;;10.20;;
23474;SDS011;11910;52.086;21.066;2024-02-16T03:10:39;14.73;;;9.85;;
23474;SDS011;11910;52.086;21.066;2024-02-16T03:13:05;14.85;;;9.30;;
23474;SDS011;11910;52.086;21.066;2024-02-16T03:15:33;14.80;;;9.80;;
23474;SDS011;11910;52.086;21.066;2024-02-16T03:18:00;14.85;;;9.63;;
23474;SDS011;11910;52.086;21.066;2024-02-16T03:20:26;16.38;;;9.48;;
23474;SDS011;11910;52.086;21.066;2024-02-16T03:22:52;12.30;;;9.02;;
23474;SDS011;11910;52.086;21.066;2024-02-16T03:25:18;14.23;;;9.88;;
23474;SDS011;11910;52.086;21.066;2024-02-16T03:27:44;15.60;;;10.02;;
23474;SDS011;11910;52.086;21.066;2024-02-16T03:30:10;15.38;;;9.70;;
23474;SDS011;11910;52.086;21.066;2024-02-16T03:32:36;13.25;;;9.27;;
23474;SDS011;11910;52.086;21.066;2024-02-16T03:35:02;16.25;;;9.57;;
23474;SDS011;11910;52.086;21.066;2024-02-16T03:37:29;21.35;;;9.90;;
23474;SDS011;11910;52.086;21.066;2024-02-16T03:39:55;17.17;;;10.40;;
23474;SDS011;11910;52.086;21.066;2024-02-16T03:42:21;16.75;;;9.55;;
23474;SDS011;11910;52.086;21.066;2024-02-16T03:44:46;15.82;;;9.80;;
23474;SDS011;11910;52.086;21.066;2024-02-16T03:47:12;14.43;;;9.90;;
23474;SDS011;11910;52.086;21.066;2024-02-16T03:49:39;15.48;;;9.93;;
23474;SDS011;11910;52.086;21.066;2024-02-16T03:52:05;15.20;;;9.85;;
23474;SDS011;11910;52.086;21.066;2024-02-16T03:54:30;15.50;;;9.88;;
23474;SDS011;11910;52.086;21.066;2024-02-16T03:56:57;12.65;;;9.55;;
23474;SDS011;11910;52.086;21.066;2024-02-16T03:59:23;13.82;;;10.13;;
23474;SDS011;11910;52.086;21.066;2024-02-16T04:01:49;15.70;;;10.45;;
23474;SDS011;11910;52.086;21.066;2024-02-16T04:04:16;14.10;;;9.50;;
23474;SDS011;11910;52.086;21.066;2024-02-16T04:06:42;14.48;;;9.85;;
23474;SDS011;11910;52.086;21.066;2024-02-16T04:09:07;15.48;;;10.23;;
23474;SDS011;11910;52.086;21.066;2024-02-16T04:11:33;15.65;;;10.60;;
23474;SDS011;11910;52.086;21.066;2024-02-16T04:14:00;19.10;;;11.15;;
23474;SDS011;11910;52.086;21.066;2024-02-16T04:16:26;17.08;;;10.60;;
23474;SDS011;11910;52.086;21.066;2024-02-16T04:18:52;19.40;;;10.93;;
23474;SDS011;11910;52.086;21.066;2024-02-16T04:21:17;17.45;;;10.45;;
23474;SDS011;11910;52.086;21.066;2024-02-16T04:23:44;15.98;;;10.05;;
23474;SDS011;11910;52.086;21.066;2024-02-16T04:26:09;17.42;;;10.73;;
23474;SDS011;11910;52.086;21.066;2024-02-16T04:28:35;17.50;;;10.50;;
23474;SDS011;11910;52.086;21.066;2024-02-16T04:31:01;13.30;;;10.23;;
23474;SDS011;11910;52.086;21.066;2024-02-16T04:33:27;17.73;;;10.90;;
23474;SDS011;11910;52.086;21.066;2024-02-16T04:35:52;20.58;;;11.52;;
23474;SDS011;11910;52.086;21.066;2024-02-16T04:38:18;17.75;;;10.90;;
23474;SDS011;11910;52.086;21.066;2024-02-16T04:40:44;18.13;;;11.30;;
23474;SDS011;11910;52.086;21.066;2024-02-16T04:43:10;19.15;;;9.93;;
23474;SDS011;11910;52.086;21.066;2024-02-16T04:45:36;19.70;;;11.27;;
23474;SDS011;11910;52.086;21.066;2024-02-16T04:48:04;17.45;;;9.98;;
23474;SDS011;11910;52.086;21.066;2024-02-16T04:50:34;15.15;;;10.68;;
23474;SDS011;11910;52.086;21.066;2024-02-16T04:53:00;17.50;;;10.65;;
23474;SDS011;11910;52.086;21.066;2024-02-16T04:55:29;18.05;;;10.65;;
23474;SDS011;11910;52.086;21.066;2024-02-16T04:57:56;15.02;;;10.38;;
23474;SDS011;11910;52.086;21.066;2024-02-16T05:00:21;17.13;;;10.90;;
23474;SDS011;11910;52.086;21.066;2024-02-16T05:02:48;15.52;;;10.98;;
23474;SDS011;11910;52.086;21.066;2024-02-16T05:05:13;16.02;;;10.82;;
23474;SDS011;11910;52.086;21.066;2024-02-16T05:07:40;16.58;;;11.23;;
23474;SDS011;11910;52.086;21.066;2024-02-16T05:10:11;18.33;;;11.00;;
23474;SDS011;11910;52.086;21.066;2024-02-16T05:12:37;17.13;;;11.90;;
23474;SDS011;11910;52.086;21.066;2024-02-16T05:15:03;17.42;;;10.82;;
23474;SDS011;11910;52.086;21.066;2024-02-16T05:17:31;15.63;;;10.27;;
23474;SDS011;11910;52.086;21.066;2024-02-16T05:19:56;19.75;;;10.20;;
23474;SDS011;11910;52.086;21.066;2024-02-16T05:22:22;20.85;;;11.10;;
23474;SDS011;11910;52.086;21.066;2024-02-16T05:24:48;16.17;;;11.45;;
23474;SDS011;11910;52.086;21.066;2024-02-16T05:27:13;17.15;;;11.23;;
23474;SDS011;11910;52.086;21.066;2024-02-16T05:29:39;20.88;;;12.30;;
23474;SDS011;11910;52.086;21.066;2024-02-16T05:32:05;19.85;;;11.40;;
23474;SDS011;11910;52.086;21.066;2024-02-16T05:34:31;20.50;;;11.40;;
23474;SDS011;11910;52.086;21.066;2024-02-16T05:37:05;17.33;;;11.57;;
23474;SDS011;11910;52.086;21.066;2024-02-16T05:39:32;18.70;;;11.60;;
23474;SDS011;11910;52.086;21.066;2024-02-16T05:42:00;16.85;;;12.18;;
23474;SDS011;11910;52.086;21.066;2024-02-16T05:44:26;20.25;;;12.38;;
23474;SDS011;11910;52.086;21.066;2024-02-16T05:46:52;20.20;;;12.13;;
23474;SDS011;11910;52.086;21.066;2024-02-16T05:49:18;16.73;;;12.02;;
23474;SDS011;11910;52.086;21.066;2024-02-16T05:51:44;17.13;;;11.82;;
23474;SDS011;11910;52.086;21.066;2024-02-16T05:54:30;21.08;;;12.80;;
23474;SDS011;11910;52.086;21.066;2024-02-16T05:56:56;21.05;;;11.20;;
23474;SDS011;11910;52.086;21.066;2024-02-16T05:59:22;20.05;;;12.23;;
23474;SDS011;11910;52.086;21.066;2024-02-16T06:01:50;19.95;;;11.35;;
23474;SDS011;11910;52.086;21.066;2024-02-16T06:04:16;19.08;;;12.40;;
23474;SDS011;11910;52.086;21.066;2024-02-16T06:06:41;24.05;;;12.10;;
23474;SDS011;11910;52.086;21.066;2024-02-16T06:09:07;18.92;;;12.00;;
23474;SDS011;11910;52.086;21.066;2024-02-16T06:11:33;22.88;;;12.57;;
23474;SDS011;11910;52.086;21.066;2024-02-16T06:14:01;16.65;;;11.77;;
23474;SDS011;11910;52.086;21.066;2024-02-16T06:16:27;18.00;;;11.77;;
23474;SDS011;11910;52.086;21.066;2024-02-16T06:18:53;20.40;;;12.52;;
23474;SDS011;11910;52.086;21.066;2024-02-16T06:21:18;20.17;;;12.82;;
23474;SDS011;11910;52.086;21.066;2024-02-16T06:23:44;18.00;;;11.93;;
23474;SDS011;11910;52.086;21.066;2024-02-16T06:26:09;23.65;;;13.80;;
23474;SDS011;11910;52.086;21.066;2024-02-16T06:28:35;29.58;;;16.75;;
23474;SDS011;11910;52.086;21.066;2024-02-16T06:31:01;22.90;;;14.98;;
23474;SDS011;11910;52.086;21.066;2024-02-16T06:33:26;19.90;;;13.38;;
23474;SDS011;11910;52.086;21.066;2024-02-16T06:35:52;22.92;;;13.32;;
23474;SDS011;11910;52.086;21.066;2024-02-16T06:38:17;20.55;;;13.00;;
23474;SDS011;11910;52.086;21.066;2024-02-16T06:40:43;23.83;;;13.73;;
23474;SDS011;11910;52.086;21.066;2024-02-16T06:43:09;21.60;;;13.57;;
23474;SDS011;11910;52.086;21.066;2024-02-16T06:45:34;23.23;;;13.30;;
23474;SDS011;11910;52.086;21.066;2024-02-16T06:48:01;21.92;;;13.70;;
23474;SDS011;11910;52.086;21.066;2024-02-16T06:50:27;22.30;;;13.30;;
23474;SDS011;11910;52.086;21.066;2024-02-16T06:52:52;24.80;;;14.57;;
23474;SDS011;11910;52.086;21.066;2024-02-16T06:55:20;23.50;;;14.20;;
23474;SDS011;11910;52.086;21.066;2024-02-16T06:57:45;25.67;;;15.02;;
23474;SDS011;11910;52.086;21.066;2024-02-16T07:00:11;22.73;;;14.75;;
23474;SDS011;11910;52.086;21.066;2024-02-16T07:02:38;22.25;;;14.18;;
23474;SDS011;11910;52.086;21.066;2024-02-16T07:05:06;22.92;;;13.43;;
23474;SDS011;11910;52.086;21.066;2024-02-16T07:07:32;20.23;;;13.52;;
23474;SDS011;11910;52.086;21.066;2024-02-16T07:10:00;24.38;;;13.90;;
23474;SDS011;11910;52.086;21.066;2024-02-16T07:12:26;21.90;;;13.18;;
23474;SDS011;11910;52.086;21.066;2024-02-16T07:14:52;21.27;;;13.20;;
23474;SDS011;11910;52.086;21.066;2024-02-16T07:17:18;21.08;;;13.32;;
23474;SDS011;11910;52.086;21.066;2024-02-16T07:19:44;21.60;;;13.40;;
23474;SDS011;11910;52.086;21.066;2024-02-16T07:22:10;22.17;;;13.60;;
23474;SDS011;11910;52.086;21.066;2024-02-16T07:24:37;21.23;;;14.23;;
23474;SDS011;11910;52.086;21.066;2024-02-16T07:27:03;23.60;;;13.45;;
23474;SDS011;11910;52.086;21.066;2024-02-16T07:29:29;23.05;;;14.15;;
23474;SDS011;11910;52.086;21.066;2024-02-16T07:31:54;19.30;;;12.75;;
23474;SDS011;11910;52.086;21.066;2024-02-16T07:34:21;21.83;;;13.88;;
23474;SDS011;11910;52.086;21.066;2024-02-16T07:36:46;25.52;;;13.35;;
23474;SDS011;11910;52.086;21.066;2024-02-16T07:39:12;24.00;;;13.95;;
23474;SDS011;11910;52.086;21.066;2024-02-16T07:41:38;20.65;;;13.32;;
23474;SDS011;11910;52.086;21.066;2024-02-16T07:44:04;24.02;;;13.32;;
23474;SDS011;11910;52.086;21.066;2024-02-16T07:46:30;23.00;;;12.80;;
23474;SDS011;11910;52.086;21.066;2024-02-16T07:48:55;20.80;;;13.20;;
23474;SDS011;11910;52.086;21.066;2024-02-16T07:51:21;21.15;;;13.00;;
23474;SDS011;11910;52.086;21.066;2024-02-16T07:53:47;21.10;;;13.20;;
23474;SDS011;11910;52.086;21.066;2024-02-16T07:56:12;22.88;;;13.73;;
23474;SDS011;11910;52.086;21.066;2024-02-16T07:58:40;24.25;;;14.70;;
23474;SDS011;11910;52.086;21.066;2024-02-16T08:01:08;21.23;;;13.57;;
23474;SDS011;11910;52.086;21.066;2024-02-16T08:03:35;19.85;;;13.57;;
23474;SDS011;11910;52.086;21.066;2024-02-16T08:06:01;20.88;;;12.70;;
23474;SDS011;11910;52.086;21.066;2024-02-16T08:08:27;18.75;;;12.82;;
23474;SDS011;11910;52.086;21.066;2024-02-16T08:10:53;21.17;;;12.77;;
23474;SDS011;11910;52.086;21.066;2024-02-16T08:13:18;20.42;;;12.93;;
23474;SDS011;11910;52.086;21.066;2024-02-16T08:15:45;22.33;;;13.13;;
23474;SDS011;11910;52.086;21.066;2024-02-16T08:18:12;20.20;;;12.95;;
23474;SDS011;11910;52.086;21.066;2024-02-16T08:20:38;19.25;;;12.70;;
23474;SDS011;11910;52.086;21.066;2024-02-16T08:23:04;24.98;;;13.35;;
23474;SDS011;11910;52.086;21.066;2024-02-16T08:25:29;18.50;;;12.07;;
23474;SDS011;11910;52.086;21.066;2024-02-16T08:27:55;19.75;;;12.00;;
23474;SDS011;11910;52.086;21.066;2024-02-16T08:30:21;24.42;;;13.00;;
23474;SDS011;11910;52.086;21.066;2024-02-16T08:32:47;19.98;;;12.65;;
23474;SDS011;11910;52.086;21.066;2024-02-16T08:35:13;20.33;;;12.25;;
23474;SDS011;11910;52.086;21.066;2024-02-16T08:37:40;20.33;;;11.77;;
23474;SDS011;11910;52.086;21.066;2024-02-16T08:40:06;18.27;;;11.93;;
23474;SDS011;11910;52.086;21.066;2024-02-16T08:42:32;17.65;;;11.88;;
23474;SDS011;11910;52.086;21.066;2024-02-16T08:44:57;22.15;;;12.60;;
23474;SDS011;11910;52.086;21.066;2024-02-16T08:47:25;17.55;;;12.57;;
23474;SDS011;11910;52.086;21.066;2024-02-16T08:49:51;19.05;;;12.75;;
23474;SDS011;11910;52.086;21.066;2024-02-16T08:52:16;19.23;;;12.52;;
23474;SDS011;11910;52.086;21.066;2024-02-16T08:54:42;19.45;;;12.50;;
23474;SDS011;11910;52.086;21.066;2024-02-16T08:57:08;19.75;;;12.52;;
23474;SDS011;11910;52.086;21.066;2024-02-16T08:59:35;18.98;;;12.50;;
23474;SDS011;11910;52.086;21.066;2024-02-16T09:02:00;22.85;;;12.30;;
23474;SDS011;11910;52.086;21.066;2024-02-16T09:04:26;20.02;;;12.43;;
23474;SDS011;11910;52.086;21.066;2024-02-16T09:06:52;21.38;;;12.57;;
23474;SDS011;11910;52.086;21.066;2024-02-16T09:09:18;19.23;;;12.98;;
23474;SDS011;11910;52.086;21.066;2024-02-16T09:11:44;17.98;;;11.98;;
23474;SDS011;11910;52.086;21.066;2024-02-16T09:14:09;19.85;;;12.40;;
23474;SDS011;11910;52.086;21.066;2024-02-16T09:16:35;19.00;;;12.52;;
23474;SDS011;11910;52.086;21.066;2024-02-16T09:19:01;21.98;;;12.68;;
23474;SDS011;11910;52.086;21.066;2024-02-16T09:21:27;18.75;;;12.15;;
23474;SDS011;11910;52.086;21.066;2024-02-16T09:23:54;19.45;;;11.95;;
23474;SDS011;11910;52.086;21.066;2024-02-16T09:26:26;18.50;;;11.38;;
23474;SDS011;11910;52.086;21.066;2024-02-16T09:28:55;23.10;;;11.80;;
23474;SDS011;11910;52.086;21.066;2024-02-16T09:31:21;17.50;;;11.25;;
23474;SDS011;11910;52.086;21.066;2024-02-16T09:33:47;17.05;;;10.95;;
23474;SDS011;11910;52.086;21.066;2024-02-16T09:36:13;19.58;;;11.85;;
23474;SDS011;11910;52.086;21.066;2024-02-16T09:38:39;19.98;;;11.40;;
23474;SDS011;11910;52.086;21.066;2024-02-16T09:41:04;17.55;;;11.35;;
23474;SDS011;11910;52.086;21.066;2024-02-16T09:43:30;21.23;;;11.23;;
23474;SDS011;11910;52.086;21.066;2024-02-16T09:45:56;19.83;;;11.77;;
23474;SDS011;11910;52.086;21.066;2024-02-16T09:48:25;17.58;;;12.05;;
23474;SDS011;11910;52.086;21.066;2024-02-16T09:50:55;18.08;;;11.32;;
23474;SDS011;11910;52.086;21.066;2024-02-16T09:53:24;18.33;;;11.77;;
23474;SDS011;11910;52.086;21.066;2024-02-16T09:55:51;18.92;;;12.05;;
23474;SDS011;11910;52.086;21.066;2024-02-16T09:58:17;18.40;;;12.02;;
23474;SDS011;11910;52.086;21.066;2024-02-16T10:00:53;16.80;;;10.75;;
23474;SDS011;11910;52.086;21.066;2024-02-16T10:03:27;20.58;;;11.52;;
23474;SDS011;11910;52.086;21.066;2024-02-16T10:06:03;16.95;;;11.57;;
23474;SDS011;11910;52.086;21.066;2024-02-16T10:08:33;18.85;;;11.68;;
23474;SDS011;11910;52.086;21.066;2024-02-16T10:11:00;16.63;;;11.18;;
23474;SDS011;11910;52.086;21.066;2024-02-16T10:13:29;18.83;;;11.93;;
23474;SDS011;11910;52.086;21.066;2024-02-16T10:16:05;18.42;;;12.05;;
23474;SDS011;11910;52.086;21.066;2024-02-16T10:18:33;20.48;;;12.18;;
23474;SDS011;11910;52.086;21.066;2024-02-16T10:21:03;24.15;;;12.27;;
23474;SDS011;11910;52.086;21.066;2024-02-16T10:23:29;17.42;;;12.15;;
23474;SDS011;11910;52.086;21.066;2024-02-16T10:25:55;21.15;;;12.93;;
23474;SDS011;11910;52.086;21.066;2024-02-16T10:28:20;16.42;;;11.25;;
23474;SDS011;11910;52.086;21.066;2024-02-16T10:30:52;19.92;;;12.18;;
23474;SDS011;11910;52.086;21.066;2024-02-16T10:33:23;18.40;;;12.35;;
23474;SDS011;11910;52.086;21.066;2024-02-16T10:35:49;20.48;;;12.93;;
23474;SDS011;11910;52.086;21.066;2024-02-16T10:38:16;19.95;;;12.27;;
23474;SDS011;11910;52.086;21.066;2024-02-16T10:40:43;18.38;;;11.77;;
23474;SDS011;11910;52.086;21.066;2024-02-16T10:43:12;19.85;;;11.77;;
23474;SDS011;11910;52.086;21.066;2024-02-16T10:45:39;17.05;;;11.98;;
23474;SDS011;11910;52.086;21.066;2024-02-16T10:48:05;17.98;;;11.93;;
23474;SDS011;11910;52.086;21.066;2024-02-16T10:50:33;19.20;;;11.90;;
23474;SDS011;11910;52.086;21.066;2024-02-16T10:53:02;16.95;;;11.80;;
23474;SDS011;11910;52.086;21.066;2024-02-16T10:55:35;18.40;;;12.52;;
23474;SDS011;11910;52.086;21.066;2024-02-16T10:58:01;15.10;;;11.30;;
23474;SDS011;11910;52.086;21.066;2024-02-16T11:00:26;18.10;;;11.73;;
23474;SDS011;11910;52.086;21.066;2024-02-16T11:02:56;18.02;;;11.70;;
23474;SDS011;11910;52.086;21.066;2024-02-16T11:08:02;20.00;;;12.15;;
23474;SDS011;11910;52.086;21.066;2024-02-16T11:10:29;20.55;;;12.63;;
23474;SDS011;11910;52.086;21.066;2024-02-16T11:12:59;18.65;;;12.50;;
23474;SDS011;11910;52.086;21.066;2024-02-16T11:15:32;16.85;;;12.40;;
23474;SDS011;11910;52.086;21.066;2024-02-16T11:18:03;18.50;;;12.05;;
23474;SDS011;11910;52.086;21.066;2024-02-16T11:20:35;18.42;;;13.02;;
23474;SDS011;11910;52.086;21.066;2024-02-16T11:23:08;18.10;;;13.35;;
23474;SDS011;11910;52.086;21.066;2024-02-16T11:25:34;19.20;;;14.05;;
23474;SDS011;11910;52.086;21.066;2024-02-16T11:28:01;19.52;;;12.60;;
23474;SDS011;11910;52.086;21.066;2024-02-16T11:30:28;16.63;;;12.77;;
23474;SDS011;11910;52.086;21.066;2024-02-16T11:32:57;16.23;;;11.90;;
23474;SDS011;11910;52.086;21.066;2024-02-16T11:35:23;18.77;;;12.80;;
23474;SDS011;11910;52.086;21.066;2024-02-16T11:37:49;17.02;;;12.80;;
23474;SDS011;11910;52.086;21.066;2024-02-16T11:40:15;16.95;;;13.20;;
23474;SDS011;11910;52.086;21.066;2024-02-16T11:42:40;18.38;;;12.35;;
23474;SDS011;11910;52.086;21.066;2024-02-16T11:45:10;17.48;;;12.70;;
23474;SDS011;11910;52.086;21.066;2024-02-16T11:47:37;18.52;;;12.57;;
23474;SDS011;11910;52.086;21.066;2024-02-16T11:50:08;20.15;;;12.60;;
23474;SDS011;11910;52.086;21.066;2024-02-16T11:52:36;17.10;;;12.18;;
23474;SDS011;11910;52.086;21.066;2024-02-16T11:55:07;16.70;;;11.50;;
23474;SDS011;11910;52.086;21.066;2024-02-16T11:57:34;15.82;;;11.52;;
23474;SDS011;11910;52.086;21.066;2024-02-16T12:00:01;15.15;;;11.82;;
23474;SDS011;11910;52.086;21.066;2024-02-16T12:02:36;18.13;;;12.15;;
23474;SDS011;11910;52.086;21.066;2024-02-16T12:05:02;16.75;;;11.88;;
23474;SDS011;11910;52.086;21.066;2024-02-16T12:07:28;16.35;;;11.65;;
23474;SDS011;11910;52.086;21.066;2024-02-16T12:09:56;16.10;;;11.20;;
23474;SDS011;11910;52.086;21.066;2024-02-16T12:12:22;14.00;;;11.43;;
23474;SDS011;11910;52.086;21.066;2024-02-16T12:14:48;14.50;;;11.57;;
23474;SDS011;11910;52.086;21.066;2024-02-16T12:17:14;13.85;;;10.82;;
23474;SDS011;11910;52.086;21.066;2024-02-16T12:19:43;16.17;;;11.23;;
23474;SDS011;11910;52.086;21.066;2024-02-16T12:22:10;17.70;;;12.15;;
23474;SDS011;11910;52.086;21.066;2024-02-16T12:24:36;18.00;;;12.20;;
23474;SDS011;11910;52.086;21.066;2024-02-16T12:27:02;17.67;;;11.80;;
23474;SDS011;11910;52.086;21.066;2024-02-16T12:29:28;13.77;;;11.43;;
23474;SDS011;11910;52.086;21.066;2024-02-16T12:31:54;16.00;;;11.63;;
23474;SDS011;11910;52.086;21.066;2024-02-16T12:34:20;15.10;;;11.43;;
23474;SDS011;11910;52.086;21.066;2024-02-16T12:36:45;16.67;;;11.88;;
23474;SDS011;11910;52.086;21.066;2024-02-16T12:39:11;17.90;;;12.27;;
23474;SDS011;11910;52.086;21.066;2024-02-16T12:41:39;17.38;;;12.07;;
23474;SDS011;11910;52.086;21.066;2024-02-16T12:44:07;18.35;;;11.52;;
23474;SDS011;11910;52.086;21.066;2024-02-16T12:46:33;16.02;;;11.75;;
23474;SDS011;11910;52.086;21.066;2024-02-16T12:48:59;16.42;;;11.13;;
23474;SDS011;11910;52.086;21.066;2024-02-16T12:51:24;20.55;;;12.60;;
23474;SDS011;11910;52.086;21.066;2024-02-16T12:53:50;17.98;;;12.07;;
23474;SDS011;11910;52.086;21.066;2024-02-16T12:56:16;18.80;;;12.15;;
23474;SDS011;11910;52.086;21.066;2024-02-16T12:58:42;19.15;;;11.40;;
23474;SDS011;11910;52.086;21.066;2024-02-16T13:01:07;18.13;;;11.60;;
23474;SDS011;11910;52.086;21.066;2024-02-16T13:03:34;20.20;;;12.00;;
23474;SDS011;11910;52.086;21.066;2024-02-16T13:06:00;16.85;;;11.52;;
23474;SDS011;11910;52.086;21.066;2024-02-16T13:08:26;16.17;;;11.15;;
23474;SDS011;11910;52.086;21.066;2024-02-16T13:10:52;14.50;;;11.52;;
23474;SDS011;11910;52.086;21.066;2024-02-16T13:13:18;16.25;;;11.88;;
23474;SDS011;11910;52.086;21.066;2024-02-16T13:15:46;19.60;;;12.00;;
23474;SDS011;11910;52.086;21.066;2024-02-16T13:18:14;15.43;;;12.05;;
23474;SDS011;11910;52.086;21.066;2024-02-16T13:20:41;17.20;;;12.00;;
23474;SDS011;11910;52.086;21.066;2024-02-16T13:23:07;16.40;;;11.95;;
23474;SDS011;11910;52.086;21.066;2024-02-16T13:25:32;17.60;;;12.57;;
23474;SDS011;11910;52.086;21.066;2024-02-16T13:27:58;16.27;;;11.13;;
23474;SDS011;11910;52.086;21.066;2024-02-16T13:30:26;14.88;;;10.80;;
23474;SDS011;11910;52.086;21.066;2024-02-16T13:32:55;17.27;;;10.80;;
23474;SDS011;11910;52.086;21.066;2024-02-16T13:35:21;15.68;;;11.05;;
23474;SDS011;11910;52.086;21.066;2024-02-16T13:37:47;13.90;;;11.00;;
23474;SDS011;11910;52.086;21.066;2024-02-16T13:40:13;14.18;;;11.25;;
23474;SDS011;11910;52.086;21.066;2024-02-16T13:42:39;16.35;;;10.88;;
23474;SDS011;11910;52.086;21.066;2024-02-16T13:45:05;15.63;;;10.35;;
23474;SDS011;11910;52.086;21.066;2024-02-16T13:47:32;16.25;;;10.75;;
23474;SDS011;11910;52.086;21.066;2024-02-16T13:49:57;16.70;;;10.52;;
23474;SDS011;11910;52.086;21.066;2024-02-16T13:52:24;14.20;;;10.20;;
23474;SDS011;11910;52.086;21.066;2024-02-16T13:54:50;14.48;;;10.25;;
23474;SDS011;11910;52.086;21.066;2024-02-16T13:57:16;16.92;;;10.10;;
23474;SDS011;11910;52.086;21.066;2024-02-16T13:59:42;18.48;;;10.27;;
23474;SDS011;11910;52.086;21.066;2024-02-16T14:02:08;19.23;;;10.70;;
23474;SDS011;11910;52.086;21.066;2024-02-16T14:04:35;13.52;;;9.68;;
23474;SDS011;11910;52.086;21.066;2024-02-16T14:07:01;14.57;;;9.90;;
23474;SDS011;11910;52.086;21.066;2024-02-16T14:09:27;17.10;;;11.40;;